createdAt,value
2023-01-03T00:02:00.763Z,3.10
2023-01-03T00:04:27.552Z,3.27
2023-01-03T00:06:54.511Z,3.00
2023-01-03T00:09:22.385Z,3.17
2023-01-03T00:12:08.409Z,3.20
2023-01-03T00:14:36.542Z,3.13
2023-01-03T00:17:05.045Z,2.90
2023-01-03T00:19:33.697Z,3.03
2023-01-03T00:22:00.409Z,3.37
2023-01-03T00:24:27.157Z,3.20
2023-01-03T00:26:53.846Z,3.20
2023-01-03T00:29:20.519Z,3.20
2023-01-03T00:31:47.111Z,3.03
2023-01-03T00:34:13.843Z,3.03
2023-01-03T00:36:40.795Z,3.47
2023-01-03T00:39:07.490Z,3.20
2023-01-03T00:41:34.149Z,3.37
2023-01-03T00:44:00.948Z,3.30
2023-01-03T00:46:27.643Z,2.93
2023-01-03T00:48:54.369Z,3.50
2023-01-03T00:51:31.153Z,3.40
2023-01-03T00:53:58.553Z,3.30
2023-01-03T00:56:27.010Z,3.50
2023-01-03T00:58:54.384Z,3.57
2023-01-03T01:01:22.804Z,3.53
2023-01-03T01:03:54.001Z,3.50
2023-01-03T01:06:22.272Z,3.97
2023-01-03T01:08:49.838Z,3.90
2023-01-03T01:11:17.820Z,4.33
2023-01-03T01:13:45.078Z,4.10
2023-01-03T01:16:13.091Z,4.10
2023-01-03T01:18:40.485Z,4.10
2023-01-03T01:21:08.250Z,4.33
2023-01-03T01:23:35.666Z,4.43
2023-01-03T01:26:02.887Z,4.83
2023-01-03T01:28:29.495Z,4.90
2023-01-03T01:30:59.970Z,4.57
2023-01-03T01:33:26.664Z,4.90
2023-01-03T01:35:53.861Z,4.47
2023-01-03T01:38:20.839Z,4.77
2023-01-03T01:40:47.472Z,4.90
2023-01-03T01:43:35.412Z,5.37
2023-01-03T01:46:06.351Z,4.47
2023-01-03T01:48:33.475Z,5.47
2023-01-03T01:51:00.203Z,4.50
2023-01-03T01:53:35.943Z,4.47
2023-01-03T01:56:09.367Z,4.73
2023-01-03T01:58:37.019Z,5.00
2023-01-03T02:01:12.020Z,4.83
2023-01-03T02:03:39.811Z,5.03
2023-01-03T02:06:08.524Z,4.87
2023-01-03T02:08:35.270Z,5.07
2023-01-03T02:11:09.502Z,5.47
2023-01-03T02:13:42.536Z,5.40
2023-01-03T02:16:18.354Z,5.10
2023-01-03T02:19:03.564Z,5.30
2023-01-03T02:21:49.095Z,5.10
2023-01-03T02:24:43.033Z,5.27
2023-01-03T02:27:12.457Z,5.20
2023-01-03T02:29:57.764Z,5.70
2023-01-03T02:32:44.650Z,5.70
2023-01-03T02:35:14.426Z,5.03
2023-01-03T02:37:44.535Z,5.77
2023-01-03T02:40:20.139Z,5.10
2023-01-03T02:43:01.654Z,5.70
2023-01-03T02:45:41.062Z,5.73
2023-01-03T02:48:23.782Z,5.53
2023-01-03T02:50:51.887Z,5.27
2023-01-03T02:53:25.899Z,5.53
2023-01-03T02:55:55.194Z,5.90
2023-01-03T02:58:23.508Z,5.13
2023-01-03T03:00:55.360Z,5.63
2023-01-03T03:03:24.715Z,4.90
2023-01-03T03:06:13.141Z,4.80
2023-01-03T03:08:40.488Z,5.57
2023-01-03T03:11:26.111Z,5.27
2023-01-03T03:13:54.793Z,4.90
2023-01-03T03:16:44.167Z,5.17
2023-01-03T03:19:14.818Z,5.47
2023-01-03T03:21:59.959Z,4.90
2023-01-03T03:24:48.422Z,4.40
2023-01-03T03:27:35.937Z,5.10
2023-01-03T03:30:04.024Z,4.30
2023-01-03T03:32:31.996Z,4.30
2023-01-03T03:34:59.538Z,4.33
2023-01-03T03:37:27.439Z,4.80
2023-01-03T03:40:13.726Z,4.30
2023-01-03T03:43:02.108Z,3.90
2023-01-03T03:45:39.817Z,4.67
2023-01-03T03:48:16.261Z,4.17
2023-01-03T03:51:12.491Z,4.23
2023-01-03T03:53:39.339Z,3.87
2023-01-03T03:56:10.991Z,3.47
2023-01-03T03:58:40.421Z,3.30
2023-01-03T04:01:08.286Z,3.37
2023-01-03T04:03:35.743Z,2.90
2023-01-03T04:06:06.438Z,2.77
2023-01-03T04:08:33.471Z,2.70
2023-01-03T04:11:06.237Z,2.80
2023-01-03T04:13:35.136Z,3.20
2023-01-03T04:16:02.181Z,2.93
2023-01-03T04:18:30.040Z,3.23
2023-01-03T04:20:57.501Z,2.70
2023-01-03T04:23:24.222Z,2.53
2023-01-03T04:25:50.923Z,3.00
2023-01-03T04:28:18.245Z,2.73
2023-01-03T04:30:45.507Z,2.87
2023-01-03T04:33:12.148Z,2.80
2023-01-03T04:35:39.185Z,2.83
2023-01-03T04:38:06.185Z,2.37
2023-01-03T04:40:36.080Z,2.87
2023-01-03T04:43:21.699Z,2.90
2023-01-03T04:45:49.147Z,2.60
2023-01-03T04:48:16.223Z,2.77
2023-01-03T04:50:48.598Z,2.73
2023-01-03T04:53:15.244Z,2.97
2023-01-03T04:55:46.180Z,2.40
2023-01-03T04:58:12.957Z,2.90
2023-01-03T05:00:39.618Z,2.30
2023-01-03T05:03:06.301Z,2.40
2023-01-03T05:05:32.965Z,2.60
2023-01-03T05:07:59.602Z,2.50
2023-01-03T05:10:26.304Z,2.30
2023-01-03T05:13:01.655Z,2.70
2023-01-03T05:15:28.968Z,3.00
2023-01-03T05:17:55.639Z,2.30
2023-01-03T05:20:41.285Z,2.50
2023-01-03T05:23:30.809Z,2.87
2023-01-03T05:25:57.865Z,2.40
2023-01-03T05:28:24.654Z,2.57
2023-01-03T05:30:51.367Z,2.70
2023-01-03T05:33:17.979Z,2.53
2023-01-03T05:35:47.753Z,2.43
2023-01-03T05:38:14.513Z,2.00
2023-01-03T05:40:41.788Z,2.13
2023-01-03T05:43:08.438Z,2.20
2023-01-03T05:45:35.729Z,2.47
2023-01-03T05:48:02.445Z,2.90
2023-01-03T05:50:29.229Z,2.63
2023-01-03T05:52:55.782Z,2.80
2023-01-03T05:55:22.928Z,2.87
2023-01-03T05:57:49.580Z,3.00
2023-01-03T06:00:16.447Z,2.80
2023-01-03T06:02:43.170Z,3.00
2023-01-03T06:05:10.719Z,2.83
2023-01-03T06:07:37.509Z,2.83
2023-01-03T06:10:05.385Z,3.10
2023-01-03T06:12:32.457Z,3.40
2023-01-03T06:14:59.073Z,3.33
2023-01-03T06:17:44.520Z,3.73
2023-01-03T06:20:11.168Z,4.37
2023-01-03T06:22:37.793Z,3.63
2023-01-03T06:25:04.900Z,3.40
2023-01-03T06:27:31.558Z,3.63
2023-01-03T06:29:58.222Z,3.80
2023-01-03T06:32:24.838Z,3.73
2023-01-03T06:34:51.539Z,3.60
2023-01-03T06:37:18.096Z,3.50
2023-01-03T06:39:45.760Z,3.67
2023-01-03T06:42:30.935Z,3.60
2023-01-03T06:45:16.278Z,4.20
2023-01-03T06:48:01.629Z,4.07
2023-01-03T06:50:47.095Z,4.33
2023-01-03T06:53:15.344Z,4.40
2023-01-03T06:55:42.665Z,4.27
2023-01-03T06:58:09.255Z,4.07
2023-01-03T07:00:37.136Z,4.03
2023-01-03T07:03:10.693Z,4.00
2023-01-03T07:05:39.025Z,7.97
2023-01-03T07:08:05.628Z,8.53
2023-01-03T07:10:32.220Z,6.87
2023-01-03T07:13:21.078Z,4.47
2023-01-03T07:15:47.805Z,6.17
2023-01-03T07:18:14.469Z,9.93
2023-01-03T07:20:42.454Z,6.43
2023-01-03T07:23:09.073Z,7.17
2023-01-03T07:25:36.090Z,5.13
2023-01-03T07:28:07.102Z,16.10
2023-01-03T07:30:40.041Z,4.03
2023-01-03T07:33:07.225Z,7.60
2023-01-03T07:35:34.664Z,5.93
2023-01-03T07:38:01.529Z,9.57
2023-01-03T07:40:28.683Z,8.93
2023-01-03T07:43:13.737Z,4.83
2023-01-03T07:45:41.524Z,8.27
2023-01-03T07:48:08.773Z,4.33
2023-01-03T07:50:37.110Z,3.90
2023-01-03T07:53:05.104Z,3.97
2023-01-03T07:55:35.935Z,4.57
2023-01-03T07:58:02.588Z,3.90
2023-01-03T08:00:29.186Z,4.20
2023-01-03T08:02:56.449Z,5.00
2023-01-03T08:05:23.833Z,3.90
2023-01-03T08:07:54.002Z,4.17
2023-01-03T08:10:40.424Z,2.90
2023-01-03T08:13:18.206Z,3.60
2023-01-03T08:15:46.264Z,3.67
2023-01-03T08:18:13.141Z,2.87
2023-01-03T08:20:39.938Z,2.93
2023-01-03T08:23:06.634Z,3.00
2023-01-03T08:25:33.323Z,2.97
2023-01-03T08:28:00.515Z,3.40
2023-01-03T08:30:28.911Z,2.63
2023-01-03T08:32:55.928Z,3.40
2023-01-03T08:35:23.932Z,2.67
2023-01-03T08:37:50.699Z,2.70
2023-01-03T08:40:17.992Z,2.97
2023-01-03T08:42:45.591Z,2.70
2023-01-03T08:45:13.777Z,2.70
2023-01-03T08:47:41.209Z,2.77
2023-01-03T08:50:09.718Z,2.47
2023-01-03T08:52:36.334Z,2.57
2023-01-03T08:55:04.741Z,2.43
2023-01-03T08:57:31.949Z,2.43
2023-01-03T08:59:58.632Z,2.50
2023-01-03T09:02:25.526Z,2.20
2023-01-03T09:04:52.347Z,2.37
2023-01-03T09:07:19.448Z,2.20
2023-01-03T09:09:46.069Z,2.60
2023-01-03T09:12:12.638Z,2.13
2023-01-03T09:14:39.257Z,1.90
2023-01-03T09:17:06.019Z,1.70
2023-01-03T09:19:32.685Z,1.77
2023-01-03T09:21:59.326Z,1.70
2023-01-03T09:24:25.947Z,1.70
2023-01-03T09:26:54.961Z,1.53
2023-01-03T09:29:22.951Z,2.00
2023-01-03T09:31:51.279Z,1.53
2023-01-03T09:34:18.321Z,1.70
2023-01-03T09:36:44.896Z,1.50
2023-01-03T09:39:11.584Z,1.50
2023-01-03T09:41:39.265Z,1.57
2023-01-03T09:44:07.990Z,1.50
2023-01-03T09:46:35.613Z,1.53
2023-01-03T09:49:02.623Z,1.37
2023-01-03T09:51:49.835Z,1.40
2023-01-03T09:54:41.310Z,1.37
2023-01-03T09:57:34.242Z,1.33
2023-01-03T10:00:19.754Z,1.50
2023-01-03T10:03:05.158Z,1.07
2023-01-03T10:05:40.382Z,1.27
2023-01-03T10:08:10.104Z,1.20
2023-01-03T10:10:42.697Z,1.00
2023-01-03T10:13:25.397Z,1.40
2023-01-03T10:16:11.022Z,0.97
2023-01-03T10:18:40.634Z,1.40
2023-01-03T10:21:20.230Z,1.40
2023-01-03T10:23:48.473Z,1.17
2023-01-03T10:26:15.271Z,1.00
2023-01-03T10:28:44.208Z,1.13
2023-01-03T10:31:26.184Z,1.10
2023-01-03T10:33:53.406Z,2.33
2023-01-03T10:36:20.830Z,1.23
2023-01-03T10:38:52.858Z,1.53
2023-01-03T10:41:21.510Z,1.60
2023-01-03T10:44:01.250Z,1.30
2023-01-03T10:46:30.042Z,1.03
2023-01-03T10:49:26.547Z,0.90
2023-01-03T10:51:47.356Z,1.57
2023-01-03T10:54:20.241Z,1.40
2023-01-03T10:56:47.655Z,1.30
2023-01-03T10:59:23.433Z,1.13
2023-01-03T11:01:59.082Z,1.00
2023-01-03T11:04:26.255Z,1.00
2023-01-03T11:07:00.825Z,1.30
2023-01-03T11:09:34.232Z,1.40
2023-01-03T11:12:19.765Z,1.20
2023-01-03T11:14:53.320Z,1.23
2023-01-03T11:17:21.410Z,1.40
2023-01-03T11:19:49.215Z,0.93
2023-01-03T11:22:37.442Z,0.87
2023-01-03T11:25:12.890Z,1.10
2023-01-03T11:27:51.801Z,1.00
2023-01-03T11:30:21.941Z,1.20
2023-01-03T11:33:07.278Z,1.10
2023-01-03T11:35:45.924Z,1.00
2023-01-03T11:38:13.777Z,1.30
2023-01-03T11:40:46.277Z,1.20
2023-01-03T11:43:31.533Z,1.40
2023-01-03T11:46:01.503Z,1.17
2023-01-03T11:48:51.201Z,1.20
2023-01-03T11:51:22.438Z,1.60
2023-01-03T11:53:49.791Z,1.50
2023-01-03T11:56:36.923Z,1.40
2023-01-03T11:59:07.070Z,1.20
2023-01-03T12:01:39.043Z,1.50
2023-01-03T12:04:21.556Z,1.20
2023-01-03T12:07:45.752Z,1.33
2023-01-03T12:10:03.364Z,1.17
2023-01-03T12:12:49.377Z,1.13
2023-01-03T12:15:36.298Z,1.33
2023-01-03T12:18:21.465Z,1.20
2023-01-03T12:20:51.494Z,0.93
2023-01-03T12:23:39.342Z,1.20
2023-01-03T12:26:07.762Z,1.20
2023-01-03T12:28:34.408Z,1.00
2023-01-03T12:31:05.337Z,0.90
2023-01-03T12:33:42.717Z,1.17
2023-01-03T12:36:23.336Z,0.97
2023-01-03T12:39:01.533Z,1.00
2023-01-03T12:41:31.259Z,1.40
2023-01-03T12:44:00.221Z,1.10
2023-01-03T12:46:37.985Z,1.27
2023-01-03T12:49:11.043Z,1.30
2023-01-03T12:51:37.872Z,1.20
2023-01-03T12:54:18.540Z,1.20
2023-01-03T12:57:00.312Z,1.20
2023-01-03T12:59:45.856Z,0.87
2023-01-03T13:02:42.334Z,0.90
2023-01-03T13:05:15.341Z,0.97
2023-01-03T13:07:46.408Z,1.00
2023-01-03T13:10:16.593Z,1.10
2023-01-03T13:12:46.640Z,0.87
2023-01-03T13:15:18.810Z,0.90
2023-01-03T13:17:46.385Z,0.80
2023-01-03T13:20:19.004Z,1.03
2023-01-03T13:22:48.001Z,1.13
2023-01-03T13:25:26.885Z,1.13
2023-01-03T13:27:54.301Z,0.80
2023-01-03T13:30:31.680Z,0.90
2023-01-03T13:33:10.368Z,1.50
2023-01-03T13:35:51.355Z,1.00
2023-01-03T13:38:24.546Z,1.00
2023-01-03T13:41:17.103Z,0.90
2023-01-03T13:43:40.485Z,1.03
2023-01-03T13:46:20.456Z,0.97
2023-01-03T13:48:55.391Z,1.20
2023-01-03T13:51:22.000Z,0.80
2023-01-03T13:53:57.819Z,1.10
2023-01-03T13:56:25.916Z,1.43
2023-01-03T13:58:53.705Z,0.90
2023-01-03T14:01:43.918Z,0.93
2023-01-03T14:04:29.061Z,0.80
2023-01-03T14:07:21.515Z,1.00
2023-01-03T14:10:07.126Z,1.57
2023-01-03T14:12:37.029Z,1.50
2023-01-03T14:15:19.843Z,1.07
2023-01-03T14:17:54.689Z,1.10
2023-01-03T14:20:23.331Z,0.80
2023-01-03T14:22:51.401Z,1.13
2023-01-03T14:25:31.065Z,1.07
2023-01-03T14:27:57.655Z,1.00
2023-01-03T14:30:28.223Z,1.00
2023-01-03T14:32:55.013Z,1.50
2023-01-03T14:35:35.462Z,1.43
2023-01-03T14:38:06.684Z,1.27
2023-01-03T14:40:34.235Z,1.30
2023-01-03T14:43:03.617Z,1.50
2023-01-03T14:45:30.293Z,1.33
2023-01-03T14:47:56.871Z,1.20
2023-01-03T14:50:28.229Z,1.53
2023-01-03T14:52:56.622Z,1.40
2023-01-03T14:55:27.357Z,1.10
2023-01-03T14:57:54.710Z,1.43
2023-01-03T15:00:30.046Z,1.17
2023-01-03T15:02:59.247Z,1.37
2023-01-03T15:05:25.978Z,1.20
2023-01-03T15:07:52.690Z,1.37
2023-01-03T15:10:26.012Z,1.23
2023-01-03T15:12:56.243Z,1.50
2023-01-03T15:15:29.832Z,1.37
2023-01-03T15:17:59.940Z,1.70
2023-01-03T15:20:36.855Z,1.53
2023-01-03T15:23:04.444Z,1.20
2023-01-03T15:25:38.315Z,1.20
2023-01-03T15:28:24.334Z,1.30
2023-01-03T15:30:52.632Z,1.33
2023-01-03T15:33:34.450Z,1.40
2023-01-03T15:36:18.206Z,1.47
2023-01-03T15:38:46.604Z,2.27
2023-01-03T15:41:13.240Z,2.53
2023-01-03T15:43:40.968Z,2.47
2023-01-03T15:46:15.283Z,2.13
2023-01-03T15:48:43.339Z,1.60
2023-01-03T15:51:10.389Z,1.80
2023-01-03T15:53:43.829Z,1.57
2023-01-03T15:56:19.394Z,6.57
2023-01-03T15:58:47.336Z,2.30
2023-01-03T16:01:14.112Z,3.70
2023-01-03T16:03:41.181Z,2.50
2023-01-03T16:06:07.881Z,4.43
2023-01-03T16:08:38.857Z,1.40
2023-01-03T16:11:06.655Z,2.03
2023-01-03T16:13:41.848Z,2.67
2023-01-03T16:16:09.850Z,2.40
2023-01-03T16:18:39.757Z,4.40
2023-01-03T16:21:06.710Z,1.60
2023-01-03T16:23:34.474Z,2.90
2023-01-03T16:26:01.286Z,2.63
2023-01-03T16:28:28.017Z,2.70
2023-01-03T16:31:21.912Z,4.00
2023-01-03T16:33:49.265Z,1.87
2023-01-03T16:36:18.858Z,1.60
2023-01-03T16:38:45.459Z,6.00
2023-01-03T16:41:12.168Z,4.47
2023-01-03T16:43:38.896Z,2.23
2023-01-03T16:46:05.546Z,2.87
2023-01-03T16:48:39.145Z,3.13
2023-01-03T16:51:06.354Z,3.03
2023-01-03T16:53:35.812Z,3.27
2023-01-03T16:56:03.636Z,3.37
2023-01-03T16:58:30.272Z,2.10
2023-01-03T17:00:57.170Z,3.30
2023-01-03T17:03:23.933Z,3.67
2023-01-03T17:05:51.144Z,3.10
2023-01-03T17:08:17.923Z,5.00
2023-01-03T17:10:47.117Z,3.43
2023-01-03T17:13:22.300Z,2.90
2023-01-03T17:15:49.212Z,2.40
2023-01-03T17:18:19.644Z,2.13
2023-01-03T17:20:48.937Z,2.30
2023-01-03T17:23:15.559Z,3.30
2023-01-03T17:25:42.170Z,8.23
2023-01-03T17:28:09.282Z,2.90
2023-01-03T17:30:36.954Z,5.03
2023-01-03T17:33:03.759Z,3.83
2023-01-03T17:35:30.836Z,2.70
2023-01-03T17:38:24.617Z,2.97
2023-01-03T17:40:46.897Z,2.03
2023-01-03T17:43:17.399Z,2.00
2023-01-03T17:46:02.686Z,1.80
2023-01-03T17:48:47.980Z,1.80
2023-01-03T17:51:14.807Z,1.83
2023-01-03T17:53:42.292Z,2.07
2023-01-03T17:56:11.752Z,1.53
2023-01-03T17:58:38.695Z,1.30
2023-01-03T18:01:08.126Z,1.33
2023-01-03T18:03:35.932Z,1.70
2023-01-03T18:06:07.373Z,1.50
2023-01-03T18:08:34.165Z,2.07
2023-01-03T18:11:00.774Z,1.80
2023-01-03T18:13:35.546Z,2.30
2023-01-03T18:16:02.634Z,1.70
2023-01-03T18:18:29.897Z,1.83
2023-01-03T18:20:57.113Z,1.43
2023-01-03T18:23:23.717Z,2.77
2023-01-03T18:25:51.155Z,2.70
2023-01-03T18:28:20.013Z,4.43
2023-01-03T18:30:46.754Z,2.03
2023-01-03T18:33:13.435Z,2.17
2023-01-03T18:35:40.590Z,3.27
2023-01-03T18:38:07.391Z,3.70
2023-01-03T18:40:34.145Z,3.83
2023-01-03T18:43:11.379Z,4.67
2023-01-03T18:45:38.694Z,4.17
2023-01-03T18:48:05.796Z,2.70
2023-01-03T18:50:32.710Z,2.07
2023-01-03T18:53:00.643Z,1.50
2023-01-03T18:55:28.074Z,1.67
2023-01-03T18:57:54.859Z,1.57
2023-01-03T19:00:23.028Z,1.40
2023-01-03T19:02:51.081Z,1.97
2023-01-03T19:05:17.957Z,3.23
2023-01-03T19:07:45.415Z,2.97
2023-01-03T19:10:18.308Z,1.60
2023-01-03T19:12:45.081Z,2.53
2023-01-03T19:15:19.163Z,1.53
2023-01-03T19:17:46.291Z,2.03
2023-01-03T19:20:13.160Z,1.80
2023-01-03T19:22:40.800Z,3.37
2023-01-03T19:25:16.408Z,2.50
2023-01-03T19:27:45.239Z,1.60
2023-01-03T19:30:36.983Z,1.83
2023-01-03T19:33:05.075Z,1.70
2023-01-03T19:35:31.707Z,1.93
2023-01-03T19:37:58.419Z,1.23
2023-01-03T19:40:26.437Z,1.53
2023-01-03T19:42:57.122Z,1.80
2023-01-03T19:45:28.133Z,1.60
2023-01-03T19:47:55.609Z,1.30
2023-01-03T19:50:23.633Z,1.30
2023-01-03T19:52:50.906Z,1.60
2023-01-03T19:55:18.165Z,1.30
2023-01-03T19:57:49.410Z,1.40
2023-01-03T20:00:21.208Z,2.00
2023-01-03T20:02:48.868Z,1.50
2023-01-03T20:05:17.766Z,1.80
2023-01-03T20:07:44.848Z,1.30
2023-01-03T20:10:19.213Z,1.67
2023-01-03T20:12:46.570Z,1.80
2023-01-03T20:15:32.643Z,1.57
2023-01-03T20:17:59.647Z,1.20
2023-01-03T20:20:29.070Z,1.67
2023-01-03T20:23:06.713Z,1.50
2023-01-03T20:25:34.570Z,1.50
2023-01-03T20:28:01.817Z,1.30
2023-01-03T20:30:29.332Z,1.20
2023-01-03T20:32:56.190Z,1.40
2023-01-03T20:36:08.197Z,1.23
2023-01-03T20:38:11.538Z,1.47
2023-01-03T20:40:38.303Z,1.30
2023-01-03T20:43:05.618Z,1.50
2023-01-03T20:45:32.330Z,1.30
2023-01-03T20:47:59.590Z,1.37
2023-01-03T20:50:27.448Z,6.40
2023-01-03T20:52:55.219Z,23.20
2023-01-03T20:55:25.104Z,2.67
2023-01-03T20:57:51.941Z,3.17
2023-01-03T21:00:18.897Z,1.80
2023-01-03T21:02:45.816Z,2.43
2023-01-03T21:05:12.513Z,1.60
2023-01-03T21:07:58.020Z,3.37
2023-01-03T21:10:26.269Z,2.33
2023-01-03T21:12:52.919Z,2.43
2023-01-03T21:15:19.553Z,4.97
2023-01-03T21:17:50.778Z,2.27
2023-01-03T21:20:22.434Z,1.50
2023-01-03T21:22:49.119Z,2.90
2023-01-03T21:25:17.813Z,1.70
2023-01-03T21:27:44.450Z,2.10
2023-01-03T21:30:11.540Z,5.93
2023-01-03T21:32:38.277Z,3.87
2023-01-03T21:35:05.784Z,1.57
2023-01-03T21:37:32.473Z,1.53
2023-01-03T21:39:59.084Z,2.37
2023-01-03T21:42:44.137Z,1.30
2023-01-03T21:45:11.757Z,3.30
2023-01-03T21:47:38.464Z,1.63
2023-01-03T21:50:06.199Z,1.93
2023-01-03T21:52:32.774Z,1.80
2023-01-03T21:54:59.443Z,1.67
2023-01-03T21:57:26.081Z,1.20
2023-01-03T21:59:52.692Z,1.70
2023-01-03T22:02:38.377Z,1.27
2023-01-03T22:05:05.579Z,1.77
2023-01-03T22:07:32.217Z,1.47
2023-01-03T22:10:17.023Z,1.40
2023-01-03T22:12:43.812Z,1.80
2023-01-03T22:15:10.660Z,1.60
2023-01-03T22:17:37.646Z,1.87
2023-01-03T22:20:06.584Z,1.43
2023-01-03T22:22:36.601Z,1.40
2023-01-03T22:25:03.592Z,3.07
2023-01-03T22:27:30.468Z,1.70
2023-01-03T22:29:57.076Z,1.50
2023-01-03T22:32:24.180Z,2.60
2023-01-03T22:34:50.833Z,2.40
2023-01-03T22:37:17.862Z,4.97
2023-01-03T22:39:44.512Z,2.00
2023-01-03T22:42:16.014Z,1.73
2023-01-03T22:44:45.971Z,1.20
2023-01-03T22:47:12.642Z,1.67
2023-01-03T22:49:40.137Z,2.10
2023-01-03T22:52:06.839Z,1.30
2023-01-03T22:54:35.330Z,1.87
2023-01-03T22:57:02.374Z,3.00
2023-01-03T22:59:30.544Z,2.37
2023-01-03T23:01:57.849Z,1.50
2023-01-03T23:04:26.475Z,1.33
2023-01-03T23:06:53.790Z,1.60
2023-01-03T23:09:21.102Z,2.30
2023-01-03T23:12:06.440Z,1.33
2023-01-03T23:14:33.318Z,1.70
2023-01-03T23:17:20.107Z,1.33
2023-01-03T23:19:46.768Z,1.50
2023-01-03T23:22:13.499Z,1.13
2023-01-03T23:24:40.338Z,1.10
2023-01-03T23:27:06.941Z,1.27
2023-01-03T23:29:33.704Z,1.27
2023-01-03T23:32:00.748Z,1.50
2023-01-03T23:34:27.555Z,1.43
2023-01-03T23:36:54.165Z,1.27
2023-01-03T23:39:20.795Z,1.33
2023-01-03T23:41:48.003Z,1.30
2023-01-03T23:44:14.724Z,1.10
2023-01-03T23:46:41.464Z,1.10
2023-01-03T23:49:09.644Z,1.53
2023-01-03T23:51:36.593Z,1.30
2023-01-03T23:54:03.913Z,1.20
2023-01-03T23:56:30.668Z,1.77
2023-01-03T23:58:57.210Z,1.10
